createdAt,value
2024-02-13T00:00:34.798Z,93313.66
2024-02-13T00:03:39.856Z,93314.66
2024-02-13T00:06:44.027Z,93325.69
2024-02-13T00:09:47.702Z,93338.22
2024-02-13T00:12:53.085Z,93339.09
2024-02-13T00:15:57.437Z,93349.75
2024-02-13T00:19:03.235Z,93363.38
2024-02-13T00:22:07.028Z,93367.25
2024-02-13T00:25:11.559Z,93370.34
2024-02-13T00:28:15.327Z,93380.69
2024-02-13T00:31:18.961Z,93388.81
2024-02-13T00:34:24.043Z,93390.72
2024-02-13T00:37:27.675Z,93391.13
2024-02-13T00:40:31.250Z,93408.13
2024-02-13T00:43:35.009Z,93387.63
2024-02-13T00:46:38.519Z,93401.38
2024-02-13T00:49:42.116Z,93396.72
2024-02-13T00:52:46.151Z,93409.81
2024-02-13T00:55:51.577Z,93410.31
2024-02-13T00:59:04.009Z,93416.16
2024-02-13T01:02:07.721Z,93413.47
2024-02-13T01:05:11.254Z,93426.78
2024-02-13T01:08:14.745Z,93429.47
2024-02-13T01:11:19.978Z,93435.53
2024-02-13T01:14:23.928Z,93437.63
2024-02-13T01:17:30.585Z,93435.03
2024-02-13T01:20:34.092Z,93428.50
2024-02-13T01:23:39.028Z,93432.97
2024-02-13T01:26:44.684Z,93432.19
2024-02-13T01:29:49.562Z,93449.84
2024-02-13T01:32:53.301Z,93452.56
2024-02-13T01:35:57.957Z,93462.22
2024-02-13T01:39:05.354Z,93465.91
2024-02-13T01:42:11.621Z,93475.13
2024-02-13T01:45:15.943Z,93482.69
2024-02-13T01:48:20.445Z,93476.63
2024-02-13T01:51:29.226Z,93479.75
2024-02-13T01:54:33.403Z,93486.72
2024-02-13T01:57:41.003Z,93485.00
2024-02-13T02:00:45.711Z,93482.94
2024-02-13T02:03:52.547Z,93489.88
2024-02-13T02:06:57.193Z,93476.56
2024-02-13T02:10:00.671Z,93479.66
2024-02-13T02:13:04.617Z,93473.59
2024-02-13T02:16:08.987Z,93469.31
2024-02-13T02:19:12.614Z,93473.78
2024-02-13T02:22:16.099Z,93473.69
2024-02-13T02:25:20.994Z,93482.13
2024-02-13T02:28:26.130Z,93493.28
2024-02-13T02:31:29.789Z,93487.69
2024-02-13T02:34:33.418Z,93481.44
2024-02-13T02:37:38.669Z,93496.50
2024-02-13T02:40:42.165Z,93506.47
2024-02-13T02:43:46.541Z,93495.31
2024-02-13T02:46:50.342Z,93502.13
2024-02-13T02:49:54.359Z,93509.78
2024-02-13T02:52:58.229Z,93524.31
2024-02-13T02:56:01.955Z,93528.13
2024-02-13T02:59:05.908Z,93533.41
2024-02-13T03:02:10.826Z,93538.66
2024-02-13T03:05:14.831Z,93540.03
2024-02-13T03:08:18.529Z,93546.72
2024-02-13T03:11:23.151Z,93547.41
2024-02-13T03:14:26.778Z,93547.09
2024-02-13T03:17:30.374Z,93544.94
2024-02-13T03:20:34.208Z,93543.81
2024-02-13T03:23:38.279Z,93553.94
2024-02-13T03:26:41.903Z,93550.66
2024-02-13T03:29:45.650Z,93543.81
2024-02-13T03:32:50.043Z,93541.22
2024-02-13T03:35:54.101Z,93545.91
2024-02-13T03:39:00.567Z,93560.09
2024-02-13T03:42:04.352Z,93548.59
2024-02-13T03:45:08.897Z,93542.75
2024-02-13T03:48:12.834Z,93549.56
2024-02-13T03:51:16.384Z,93552.63
2024-02-13T03:54:20.474Z,93554.16
2024-02-13T03:57:24.049Z,93558.72
2024-02-13T04:00:27.971Z,93550.06
2024-02-13T04:03:31.615Z,93559.22
2024-02-13T04:06:35.952Z,93552.56
2024-02-13T04:09:39.697Z,93544.00
2024-02-13T04:12:43.268Z,93550.75
2024-02-13T04:15:47.705Z,93533.97
2024-02-13T04:18:51.603Z,93536.66
2024-02-13T04:21:55.783Z,93531.50
2024-02-13T04:24:59.627Z,93541.25
2024-02-13T04:28:03.302Z,93537.38
2024-02-13T04:31:06.968Z,93543.94
2024-02-13T04:34:11.028Z,93539.72
2024-02-13T04:37:14.737Z,93533.16
2024-02-13T04:40:20.214Z,93542.06
2024-02-13T04:43:23.935Z,93544.59
2024-02-13T04:46:27.502Z,93534.31
2024-02-13T04:49:31.472Z,93546.66
2024-02-13T04:52:36.215Z,93543.50
2024-02-13T04:55:40.122Z,93548.88
2024-02-13T04:58:43.938Z,93556.81
2024-02-13T05:01:49.160Z,93550.28
2024-02-13T05:05:11.384Z,93552.09
2024-02-13T05:08:15.178Z,93555.91
2024-02-13T05:11:20.469Z,93551.47
2024-02-13T05:14:24.400Z,93549.31
2024-02-13T05:17:32.341Z,93554.25
2024-02-13T05:20:37.269Z,93564.19
2024-02-13T05:23:40.830Z,93564.44
2024-02-13T05:26:45.601Z,93550.25
2024-02-13T05:29:49.548Z,93549.16
2024-02-13T05:32:53.595Z,93553.25
2024-02-13T05:35:57.125Z,93558.16
2024-02-13T05:39:00.775Z,93541.75
2024-02-13T05:42:04.632Z,93542.44
2024-02-13T05:45:08.940Z,93542.66
2024-02-13T05:48:12.827Z,93548.59
2024-02-13T05:51:17.261Z,93553.09
2024-02-13T05:54:21.464Z,93551.88
2024-02-13T05:57:25.677Z,93558.69
2024-02-13T06:00:29.310Z,93569.44
2024-02-13T06:03:34.703Z,93563.25
2024-02-13T06:06:39.117Z,93562.94
2024-02-13T06:09:42.789Z,93561.31
2024-02-13T06:12:47.531Z,93578.78
2024-02-13T06:15:51.041Z,93577.56
2024-02-13T06:18:54.552Z,93573.75
2024-02-13T06:21:58.514Z,93574.28
2024-02-13T06:25:06.716Z,93575.53
2024-02-13T06:28:10.285Z,93584.56
2024-02-13T06:31:13.751Z,93584.03
2024-02-13T06:34:19.106Z,93581.97
2024-02-13T06:37:23.476Z,93585.09
2024-02-13T06:40:27.260Z,93579.72
2024-02-13T06:43:30.720Z,93596.91
2024-02-13T06:46:35.557Z,93585.66
2024-02-13T06:49:40.080Z,93586.69
2024-02-13T06:52:44.514Z,93586.09
2024-02-13T06:55:48.116Z,93586.81
2024-02-13T06:58:52.131Z,93587.19
2024-02-13T07:01:56.958Z,93588.88
2024-02-13T07:05:00.455Z,93608.28
2024-02-13T07:08:04.293Z,93608.38
2024-02-13T07:11:07.743Z,93610.47
2024-02-13T07:14:12.108Z,93619.13
2024-02-13T07:17:16.106Z,93617.88
2024-02-13T07:20:20.487Z,93623.97
2024-02-13T07:23:24.284Z,93633.78
2024-02-13T07:26:27.917Z,93627.72
2024-02-13T07:29:31.571Z,93633.53
2024-02-13T07:32:37.913Z,93639.00
2024-02-13T07:35:41.731Z,93636.84
2024-02-13T07:38:45.190Z,93630.03
2024-02-13T07:41:49.019Z,93629.94
2024-02-13T07:44:53.484Z,93641.38
2024-02-13T07:47:58.161Z,93640.13
2024-02-13T07:51:03.551Z,93645.25
2024-02-13T07:54:07.234Z,93647.88
2024-02-13T07:57:13.316Z,93650.63
2024-02-13T08:00:17.582Z,93660.56
2024-02-13T08:03:21.979Z,93670.81
2024-02-13T08:06:25.692Z,93670.69
2024-02-13T08:09:29.502Z,93678.16
2024-02-13T08:12:33.987Z,93673.81
2024-02-13T08:15:38.844Z,93684.44
2024-02-13T08:18:42.611Z,93688.25
2024-02-13T08:21:46.363Z,93695.44
2024-02-13T08:24:50.546Z,93690.25
2024-02-13T08:27:54.036Z,93690.72
2024-02-13T08:30:57.579Z,93700.81
2024-02-13T08:34:01.804Z,93705.69
2024-02-13T08:37:05.549Z,93702.66
2024-02-13T08:40:09.650Z,93697.09
2024-02-13T08:43:13.096Z,93705.22
2024-02-13T08:46:21.077Z,93714.72
2024-02-13T08:49:24.801Z,93707.69
2024-02-13T08:52:28.701Z,93729.47
2024-02-13T08:55:32.299Z,93731.91
2024-02-13T08:58:36.415Z,93730.34
2024-02-13T09:01:40.067Z,93741.66
2024-02-13T09:04:43.794Z,93746.38
2024-02-13T09:07:47.293Z,93748.91
2024-02-13T09:10:51.077Z,93760.09
2024-02-13T09:13:55.620Z,93746.28
2024-02-13T09:17:01.191Z,93743.22
2024-02-13T09:20:07.794Z,93762.00
2024-02-13T09:23:11.432Z,93772.44
2024-02-13T09:26:15.354Z,93767.78
2024-02-13T09:29:19.994Z,93775.56
2024-02-13T09:32:23.545Z,93778.50
2024-02-13T09:35:29.827Z,93784.56
2024-02-13T09:38:33.819Z,93772.88
2024-02-13T09:41:43.652Z,93780.47
2024-02-13T09:44:49.421Z,93788.63
2024-02-13T09:47:54.992Z,93792.25
2024-02-13T09:51:02.005Z,93798.69
2024-02-13T09:54:09.418Z,93795.91
2024-02-13T09:57:13.536Z,93805.34
2024-02-13T10:00:19.979Z,93803.75
2024-02-13T10:03:23.556Z,93812.91
2024-02-13T10:06:27.298Z,93821.50
2024-02-13T10:09:34.263Z,93828.44
2024-02-13T10:12:41.429Z,93830.16
2024-02-13T10:15:46.443Z,93838.75
2024-02-13T10:18:56.297Z,93831.72
2024-02-13T10:22:12.073Z,93849.97
2024-02-13T10:25:31.599Z,93838.78
2024-02-13T10:28:35.417Z,93841.41
2024-02-13T10:31:41.843Z,93854.56
2024-02-13T10:34:47.203Z,93857.97
2024-02-13T10:37:52.448Z,93859.53
2024-02-13T10:40:59.114Z,93854.56
2024-02-13T10:44:04.162Z,93867.81
2024-02-13T10:47:12.405Z,93871.91
2024-02-13T10:50:16.306Z,93868.25
2024-02-13T10:53:22.700Z,93870.84
2024-02-13T10:56:26.853Z,93877.44
2024-02-13T10:59:33.095Z,93887.00
2024-02-13T11:02:44.079Z,93877.19
2024-02-13T11:05:48.249Z,93880.50
2024-02-13T11:08:52.415Z,93888.97
2024-02-13T11:11:56.353Z,93887.56
2024-02-13T11:15:11.835Z,93891.63
2024-02-13T11:18:17.869Z,93895.19
2024-02-13T11:21:27.721Z,93902.50
2024-02-13T11:24:41.652Z,93904.78
2024-02-13T11:27:46.212Z,93896.34
2024-02-13T11:30:49.948Z,93907.63
2024-02-13T11:34:06.311Z,93908.31
2024-02-13T11:37:22.022Z,93911.13
2024-02-13T11:40:27.369Z,93920.13
2024-02-13T11:43:31.047Z,93917.41
2024-02-13T11:46:34.623Z,93921.66
2024-02-13T11:49:38.974Z,93924.25
2024-02-13T11:52:42.816Z,93926.84
2024-02-13T11:55:49.350Z,93936.47
2024-02-13T11:58:58.470Z,93940.25
2024-02-13T12:02:02.349Z,93943.53
2024-02-13T12:05:12.670Z,93944.03
2024-02-13T12:08:17.009Z,93953.47
2024-02-13T12:11:22.970Z,93960.53
2024-02-13T12:14:30.726Z,93966.47
2024-02-13T12:17:34.426Z,93958.00
2024-02-13T12:20:38.079Z,93954.97
2024-02-13T12:23:47.848Z,93963.44
2024-02-13T12:26:53.887Z,93965.31
2024-02-13T12:29:59.077Z,93977.06
2024-02-13T12:33:08.748Z,93981.28
2024-02-13T12:36:20.846Z,93977.56
2024-02-13T12:39:27.572Z,93982.22
2024-02-13T12:42:32.709Z,93993.34
2024-02-13T12:45:48.338Z,94007.03
2024-02-13T12:48:53.440Z,94013.63
2024-02-13T12:51:57.130Z,94008.16
2024-02-13T12:55:01.146Z,94008.44
2024-02-13T12:58:04.749Z,94018.53
2024-02-13T13:01:11.611Z,94022.88
2024-02-13T13:04:17.581Z,94027.47
2024-02-13T13:07:21.634Z,94029.38
2024-02-13T13:10:28.562Z,94030.09
2024-02-13T13:13:32.474Z,94038.31
2024-02-13T13:16:37.941Z,94031.06
2024-02-13T13:19:41.931Z,94033.19
2024-02-13T13:22:49.531Z,94034.63
2024-02-13T13:25:54.302Z,94042.88
2024-02-13T13:28:58.058Z,94051.53
2024-02-13T13:32:01.871Z,94052.09
2024-02-13T13:35:06.851Z,94051.13
2024-02-13T13:38:10.559Z,94064.81
2024-02-13T13:41:15.850Z,94060.81
2024-02-13T13:44:19.879Z,94058.50
2024-02-13T13:47:23.275Z,94058.53
2024-02-13T13:50:26.912Z,94057.84
2024-02-13T13:53:30.944Z,94052.25
2024-02-13T13:56:34.570Z,94061.16
2024-02-13T13:59:38.327Z,94063.53
2024-02-13T14:02:41.753Z,94065.69
2024-02-13T14:05:46.234Z,94067.56
2024-02-13T14:08:50.190Z,94074.59
2024-02-13T14:11:54.055Z,94078.16
2024-02-13T14:15:00.473Z,94081.19
2024-02-13T14:18:06.377Z,94081.66
2024-02-13T14:21:10.751Z,94085.19
2024-02-13T14:24:15.196Z,94091.06
2024-02-13T14:27:20.660Z,94079.31
2024-02-13T14:30:25.800Z,94107.47
2024-02-13T14:33:30.011Z,94094.56
2024-02-13T14:36:34.453Z,94106.78
2024-02-13T14:39:39.040Z,94109.56
2024-02-13T14:42:46.283Z,94118.72
2024-02-13T14:45:52.791Z,94117.06
2024-02-13T14:48:56.569Z,94127.38
2024-02-13T14:52:01.871Z,94122.69
2024-02-13T14:55:05.830Z,94128.56
2024-02-13T14:58:19.065Z,94129.72
2024-02-13T15:01:30.336Z,94133.72
2024-02-13T15:04:36.928Z,94132.06
2024-02-13T15:07:42.127Z,94131.56
2024-02-13T15:10:47.852Z,94137.66
2024-02-13T15:13:51.412Z,94149.34
2024-02-13T15:16:56.088Z,94146.28
2024-02-13T15:20:01.743Z,94146.50
2024-02-13T15:23:06.889Z,94143.94
2024-02-13T15:26:10.496Z,94150.06
2024-02-13T15:29:15.436Z,94153.81
2024-02-13T15:32:19.844Z,94156.88
2024-02-13T15:35:32.758Z,94154.06
2024-02-13T15:38:55.213Z,94148.19
2024-02-13T15:42:17.168Z,94153.34
2024-02-13T15:45:39.084Z,94153.38
2024-02-13T15:48:44.453Z,94163.22
2024-02-13T15:51:48.081Z,94169.75
2024-02-13T15:54:52.973Z,94169.75
2024-02-13T15:57:56.648Z,94169.31
2024-02-13T16:01:01.479Z,94174.44
2024-02-13T16:04:06.197Z,94176.78
2024-02-13T16:07:13.453Z,94187.31
2024-02-13T16:10:17.962Z,94177.50
2024-02-13T16:13:27.491Z,94184.25
2024-02-13T16:16:32.175Z,94200.19
2024-02-13T16:19:35.980Z,94203.50
2024-02-13T16:22:41.921Z,94195.53
2024-02-13T16:25:45.849Z,94201.66
2024-02-13T16:28:49.337Z,94203.50
2024-02-13T16:31:56.600Z,94203.28
2024-02-13T16:35:00.843Z,94206.56
2024-02-13T16:38:05.258Z,94217.38
2024-02-13T16:41:08.990Z,94207.72
2024-02-13T16:44:16.472Z,94219.50
2024-02-13T16:47:20.199Z,94219.22
2024-02-13T16:50:24.621Z,94223.44
2024-02-13T16:53:28.232Z,94226.03
2024-02-13T16:56:31.938Z,94222.03
2024-02-13T16:59:36.395Z,94223.19
2024-02-13T17:02:41.679Z,94228.59
2024-02-13T17:05:45.266Z,94235.19
2024-02-13T17:08:49.041Z,94237.50
2024-02-13T17:11:53.749Z,94246.91
2024-02-13T17:14:57.524Z,94228.63
2024-02-13T17:18:01.689Z,94240.81
2024-02-13T17:21:06.526Z,94244.09
2024-02-13T17:24:10.635Z,94240.59
2024-02-13T17:27:15.891Z,94234.91
2024-02-13T17:30:20.930Z,94247.84
2024-02-13T17:33:24.547Z,94249.72
2024-02-13T17:36:28.326Z,94249.91
2024-02-13T17:39:32.069Z,94243.59
2024-02-13T17:42:36.509Z,94247.34
2024-02-13T17:45:40.050Z,94251.38
2024-02-13T17:48:44.639Z,94250.38
2024-02-13T17:51:48.548Z,94249.19
2024-02-13T17:54:52.122Z,94248.94
2024-02-13T17:57:55.633Z,94253.56
2024-02-13T18:01:00.289Z,94252.84
2024-02-13T18:04:05.157Z,94260.53
2024-02-13T18:07:11.489Z,94269.22
2024-02-13T18:10:17.102Z,94276.31
2024-02-13T18:13:21.463Z,94271.38
2024-02-13T18:16:25.068Z,94264.84
2024-02-13T18:19:29.928Z,94262.72
2024-02-13T18:22:33.706Z,94270.75
2024-02-13T18:25:37.766Z,94270.03
2024-02-13T18:28:41.268Z,94263.19
2024-02-13T18:31:44.798Z,94266.94
2024-02-13T18:34:48.474Z,94275.09
2024-02-13T18:37:53.161Z,94272.75
2024-02-13T18:40:58.155Z,94271.34
2024-02-13T18:44:01.645Z,94269.22
2024-02-13T18:47:11.322Z,94273.53
2024-02-13T18:50:15.822Z,94278.47
2024-02-13T18:53:24.494Z,94281.06
2024-02-13T18:56:34.311Z,94277.78
2024-02-13T18:59:38.299Z,94277.31
2024-02-13T19:02:41.965Z,94286.25
2024-02-13T19:05:45.871Z,94279.91
2024-02-13T19:08:49.945Z,94280.13
2024-02-13T19:11:54.927Z,94284.81
2024-02-13T19:14:58.733Z,94284.78
2024-02-13T19:18:02.297Z,94285.91
2024-02-13T19:21:05.936Z,94287.13
2024-02-13T19:24:11.784Z,94288.06
2024-02-13T19:27:16.053Z,94284.81
2024-02-13T19:30:19.520Z,94276.63
2024-02-13T19:33:23.574Z,94281.09
2024-02-13T19:36:35.922Z,94280.84
2024-02-13T19:39:39.986Z,94278.03
2024-02-13T19:42:43.699Z,94279.69
2024-02-13T19:45:47.223Z,94287.38
2024-02-13T19:48:52.046Z,94283.38
2024-02-13T19:51:55.831Z,94289.22
2024-02-13T19:54:59.415Z,94280.56
2024-02-13T19:58:04.756Z,94284.97
2024-02-13T20:01:08.482Z,94286.13
2024-02-13T20:04:12.527Z,94285.25
2024-02-13T20:07:16.729Z,94278.41
2024-02-13T20:10:23.636Z,94280.25
2024-02-13T20:13:27.314Z,94285.34
2024-02-13T20:16:31.257Z,94286.19
2024-02-13T20:19:34.760Z,94285.72
2024-02-13T20:22:38.455Z,94286.94
2024-02-13T20:25:42.965Z,94286.00
2024-02-13T20:28:46.600Z,94283.91
2024-02-13T20:31:50.280Z,94282.44
2024-02-13T20:34:54.048Z,94284.06
2024-02-13T20:37:59.666Z,94283.34
2024-02-13T20:41:03.398Z,94285.00
2024-02-13T20:44:06.981Z,94284.72
2024-02-13T20:47:12.227Z,94276.75
2024-02-13T20:50:16.014Z,94287.06
2024-02-13T20:53:20.422Z,94287.06
2024-02-13T20:56:24.673Z,94280.97
2024-02-13T20:59:31.521Z,94282.59
2024-02-13T21:02:35.036Z,94284.94
2024-02-13T21:05:40.143Z,94287.69
2024-02-13T21:08:43.691Z,94290.47
2024-02-13T21:11:47.529Z,94281.28
2024-02-13T21:14:51.444Z,94292.69
2024-02-13T21:17:55.141Z,94285.38
2024-02-13T21:21:16.952Z,94293.84
2024-02-13T21:24:20.913Z,94288.63
2024-02-13T21:27:24.608Z,94282.31
2024-02-13T21:30:30.832Z,94292.25
2024-02-13T21:33:35.814Z,94292.41
2024-02-13T21:36:39.715Z,94298.91
2024-02-13T21:39:43.156Z,94297.25
2024-02-13T21:42:46.766Z,94297.63
2024-02-13T21:45:50.388Z,94297.84
2024-02-13T21:48:54.191Z,94304.13
2024-02-13T21:51:57.839Z,94306.59
2024-02-13T21:55:01.386Z,94302.78
2024-02-13T21:58:05.574Z,94301.91
2024-02-13T22:01:09.292Z,94297.88
2024-02-13T22:04:15.910Z,94295.00
2024-02-13T22:07:19.788Z,94313.06
2024-02-13T22:10:23.772Z,94312.75
2024-02-13T22:13:28.355Z,94309.47
2024-02-13T22:16:33.953Z,94314.38
2024-02-13T22:19:37.545Z,94315.53
2024-02-13T22:22:41.198Z,94320.59
2024-02-13T22:25:45.033Z,94310.31
2024-02-13T22:28:48.506Z,94316.22
2024-02-13T22:31:52.109Z,94322.25
2024-02-13T22:34:58.231Z,94315.25
2024-02-13T22:38:02.985Z,94319.69
2024-02-13T22:41:06.980Z,94315.44
2024-02-13T22:44:10.422Z,94321.09
2024-02-13T22:47:14.112Z,94304.19
2024-02-13T22:50:17.950Z,94315.72
2024-02-13T22:53:21.631Z,94319.16
2024-02-13T22:56:25.575Z,94312.97
2024-02-13T22:59:29.247Z,94310.25
2024-02-13T23:02:33.143Z,94330.22
2024-02-13T23:05:38.150Z,94334.94
2024-02-13T23:08:42.324Z,94339.72
2024-02-13T23:11:47.097Z,94339.38
2024-02-13T23:14:51.862Z,94348.22
2024-02-13T23:17:55.441Z,94338.38
2024-02-13T23:20:59.045Z,94356.44
2024-02-13T23:24:02.671Z,94358.66
2024-02-13T23:27:06.821Z,94357.44
2024-02-13T23:30:12.670Z,94364.16
2024-02-13T23:33:17.624Z,94358.19
2024-02-13T23:36:21.137Z,94372.53
2024-02-13T23:39:25.902Z,94378.03
2024-02-13T23:42:29.493Z,94382.00
2024-02-13T23:45:32.992Z,94391.22
2024-02-13T23:48:38.815Z,94391.66
2024-02-13T23:51:42.788Z,94392.63
2024-02-13T23:54:46.462Z,94396.28
2024-02-13T23:57:50.239Z,94398.31
